sensor_id;sensor_type;location;lat;lon;timestamp;temperature;humidity
22224;DHT22;11281;52.194;21.006;2023-02-15T00:03:04;1.90;99.90
22224;DHT22;11281;52.194;21.006;2023-02-15T00:07:26;2.00;99.90
22224;DHT22;11281;52.194;21.006;2023-02-15T00:11:47;2.00;99.90
22224;DHT22;11281;52.194;21.006;2023-02-15T00:16:12;2.00;99.90
22224;DHT22;11281;52.194;21.006;2023-02-15T00:20:34;2.00;99.90
22224;DHT22;11281;52.194;21.006;2023-02-15T00:24:56;2.00;99.90
22224;DHT22;11281;52.194;21.006;2023-02-15T00:29:19;2.00;99.90
22224;DHT22;11281;52.194;21.006;2023-02-15T00:33:41;2.10;99.90
22224;DHT22;11281;52.194;21.006;2023-02-15T00:38:03;2.20;99.90
22224;DHT22;11281;52.194;21.006;2023-02-15T00:42:25;2.20;99.90
22224;DHT22;11281;52.194;21.006;2023-02-15T00:46:46;2.20;99.90
22224;DHT22;11281;52.194;21.006;2023-02-15T00:51:08;2.20;99.90
22224;DHT22;11281;52.194;21.006;2023-02-15T00:55:30;2.30;99.90
22224;DHT22;11281;52.194;21.006;2023-02-15T00:59:51;2.20;99.90
22224;DHT22;11281;52.194;21.006;2023-02-15T01:04:13;2.30;99.90
22224;DHT22;11281;52.194;21.006;2023-02-15T01:08:35;2.30;99.90
22224;DHT22;11281;52.194;21.006;2023-02-15T01:12:57;2.40;99.90
22224;DHT22;11281;52.194;21.006;2023-02-15T01:17:19;2.40;99.90
22224;DHT22;11281;52.194;21.006;2023-02-15T01:21:40;2.40;99.90
22224;DHT22;11281;52.194;21.006;2023-02-15T01:26:02;2.30;99.90
22224;DHT22;11281;52.194;21.006;2023-02-15T01:30:24;2.30;99.90
22224;DHT22;11281;52.194;21.006;2023-02-15T01:34:46;2.40;99.90
22224;DHT22;11281;52.194;21.006;2023-02-15T01:39:07;2.50;99.90
22224;DHT22;11281;52.194;21.006;2023-02-15T01:43:45;2.50;99.90
22224;DHT22;11281;52.194;21.006;2023-02-15T01:48:22;2.30;99.90
22224;DHT22;11281;52.194;21.006;2023-02-15T01:57:27;2.50;99.90
22224;DHT22;11281;52.194;21.006;2023-02-15T02:01:52;2.40;99.90
22224;DHT22;11281;52.194;21.006;2023-02-15T02:06:16;2.40;99.90
22224;DHT22;11281;52.194;21.006;2023-02-15T02:10:37;2.50;99.90
22224;DHT22;11281;52.194;21.006;2023-02-15T02:14:59;2.50;99.90
22224;DHT22;11281;52.194;21.006;2023-02-15T02:39:06;2.40;99.90
22224;DHT22;11281;52.194;21.006;2023-02-15T02:44:05;2.40;99.90
22224;DHT22;11281;52.194;21.006;2023-02-15T02:48:56;2.40;99.90
22224;DHT22;11281;52.194;21.006;2023-02-15T02:53:18;2.40;99.90
22224;DHT22;11281;52.194;21.006;2023-02-15T03:02:23;2.40;99.90
22224;DHT22;11281;52.194;21.006;2023-02-15T03:06:59;2.40;99.90
22224;DHT22;11281;52.194;21.006;2023-02-15T03:11:27;2.50;99.90
22224;DHT22;11281;52.194;21.006;2023-02-15T03:15:50;2.60;99.90
22224;DHT22;11281;52.194;21.006;2023-02-15T03:20:33;2.50;99.90
22224;DHT22;11281;52.194;21.006;2023-02-15T03:25:10;2.50;99.90
22224;DHT22;11281;52.194;21.006;2023-02-15T03:29:35;2.50;99.90
22224;DHT22;11281;52.194;21.006;2023-02-15T03:34:01;2.50;99.90
22224;DHT22;11281;52.194;21.006;2023-02-15T03:38:44;2.50;99.90
22224;DHT22;11281;52.194;21.006;2023-02-15T03:43:19;2.50;99.90
22224;DHT22;11281;52.194;21.006;2023-02-15T03:47:52;2.40;99.90
22224;DHT22;11281;52.194;21.006;2023-02-15T03:52:16;2.50;99.90
22224;DHT22;11281;52.194;21.006;2023-02-15T03:56:42;2.40;99.90
22224;DHT22;11281;52.194;21.006;2023-02-15T04:06:19;2.40;99.90
22224;DHT22;11281;52.194;21.006;2023-02-15T04:10:41;2.50;99.90
22224;DHT22;11281;52.194;21.006;2023-02-15T04:15:14;2.50;99.90
22224;DHT22;11281;52.194;21.006;2023-02-15T04:19:54;2.40;99.90
22224;DHT22;11281;52.194;21.006;2023-02-15T04:24:35;2.40;99.90
22224;DHT22;11281;52.194;21.006;2023-02-15T04:29:15;2.40;99.90
22224;DHT22;11281;52.194;21.006;2023-02-15T04:33:37;2.50;99.90
22224;DHT22;11281;52.194;21.006;2023-02-15T04:37:58;2.40;99.90
22224;DHT22;11281;52.194;21.006;2023-02-15T04:42:20;2.40;99.90
22224;DHT22;11281;52.194;21.006;2023-02-15T04:46:42;2.50;99.90
22224;DHT22;11281;52.194;21.006;2023-02-15T04:51:07;2.50;99.90
22224;DHT22;11281;52.194;21.006;2023-02-15T04:55:29;2.60;99.90
22224;DHT22;11281;52.194;21.006;2023-02-15T04:59:51;2.60;99.90
22224;DHT22;11281;52.194;21.006;2023-02-15T05:04:12;2.60;99.90
22224;DHT22;11281;52.194;21.006;2023-02-15T05:08:34;2.60;99.90
22224;DHT22;11281;52.194;21.006;2023-02-15T05:12:56;2.70;99.90
22224;DHT22;11281;52.194;21.006;2023-02-15T05:17:17;2.60;99.90
22224;DHT22;11281;52.194;21.006;2023-02-15T05:21:39;2.60;99.90
22224;DHT22;11281;52.194;21.006;2023-02-15T05:26:01;2.70;99.90
22224;DHT22;11281;52.194;21.006;2023-02-15T05:30:42;2.70;99.90
22224;DHT22;11281;52.194;21.006;2023-02-15T05:35:05;2.60;99.90
22224;DHT22;11281;52.194;21.006;2023-02-15T05:39:27;2.60;99.90
22224;DHT22;11281;52.194;21.006;2023-02-15T05:43:49;2.60;99.90
22224;DHT22;11281;52.194;21.006;2023-02-15T05:48:11;2.60;99.90
22224;DHT22;11281;52.194;21.006;2023-02-15T05:52:33;2.50;99.90
22224;DHT22;11281;52.194;21.006;2023-02-15T05:56:55;2.60;99.90
22224;DHT22;11281;52.194;21.006;2023-02-15T06:01:19;2.60;99.90
22224;DHT22;11281;52.194;21.006;2023-02-15T06:05:43;2.70;99.90
22224;DHT22;11281;52.194;21.006;2023-02-15T06:10:05;2.60;99.90
22224;DHT22;11281;52.194;21.006;2023-02-15T06:14:27;2.60;99.90
22224;DHT22;11281;52.194;21.006;2023-02-15T06:18:49;2.60;99.90
22224;DHT22;11281;52.194;21.006;2023-02-15T06:23:11;2.60;99.90
22224;DHT22;11281;52.194;21.006;2023-02-15T06:27:33;2.60;99.90
22224;DHT22;11281;52.194;21.006;2023-02-15T06:31:54;2.60;99.90
22224;DHT22;11281;52.194;21.006;2023-02-15T06:36:16;2.70;99.90
22224;DHT22;11281;52.194;21.006;2023-02-15T06:40:38;2.70;99.90
22224;DHT22;11281;52.194;21.006;2023-02-15T06:44:59;2.70;99.90
22224;DHT22;11281;52.194;21.006;2023-02-15T06:49:21;2.70;99.90
22224;DHT22;11281;52.194;21.006;2023-02-15T06:53:43;2.70;99.90
22224;DHT22;11281;52.194;21.006;2023-02-15T06:58:05;2.60;99.90
22224;DHT22;11281;52.194;21.006;2023-02-15T07:02:26;2.60;99.90
22224;DHT22;11281;52.194;21.006;2023-02-15T07:06:48;2.70;99.90
22224;DHT22;11281;52.194;21.006;2023-02-15T07:11:10;2.60;99.90
22224;DHT22;11281;52.194;21.006;2023-02-15T07:15:50;2.80;99.90
22224;DHT22;11281;52.194;21.006;2023-02-15T07:20:16;2.80;99.90
22224;DHT22;11281;52.194;21.006;2023-02-15T07:24:39;2.80;99.90
22224;DHT22;11281;52.194;21.006;2023-02-15T07:29:00;2.90;99.90
22224;DHT22;11281;52.194;21.006;2023-02-15T07:33:22;2.90;99.90
22224;DHT22;11281;52.194;21.006;2023-02-15T07:37:44;2.90;99.90
22224;DHT22;11281;52.194;21.006;2023-02-15T07:42:06;2.90;99.90
22224;DHT22;11281;52.194;21.006;2023-02-15T07:46:27;3.00;99.90
22224;DHT22;11281;52.194;21.006;2023-02-15T07:50:49;2.80;99.90
22224;DHT22;11281;52.194;21.006;2023-02-15T07:55:11;2.90;99.90
22224;DHT22;11281;52.194;21.006;2023-02-15T07:59:33;3.00;99.90
22224;DHT22;11281;52.194;21.006;2023-02-15T08:03:55;3.00;99.90
22224;DHT22;11281;52.194;21.006;2023-02-15T08:08:17;3.10;99.90
22224;DHT22;11281;52.194;21.006;2023-02-15T08:12:51;3.00;99.90
22224;DHT22;11281;52.194;21.006;2023-02-15T08:17:13;3.00;99.90
22224;DHT22;11281;52.194;21.006;2023-02-15T08:21:36;2.90;99.90
22224;DHT22;11281;52.194;21.006;2023-02-15T08:26:00;3.10;99.90
22224;DHT22;11281;52.194;21.006;2023-02-15T08:30:22;3.10;99.90
22224;DHT22;11281;52.194;21.006;2023-02-15T08:34:44;2.90;99.90
22224;DHT22;11281;52.194;21.006;2023-02-15T08:39:06;2.90;99.90
22224;DHT22;11281;52.194;21.006;2023-02-15T08:43:28;3.00;99.90
22224;DHT22;11281;52.194;21.006;2023-02-15T08:47:50;3.00;99.90
22224;DHT22;11281;52.194;21.006;2023-02-15T08:52:12;3.10;99.90
22224;DHT22;11281;52.194;21.006;2023-02-15T08:56:36;3.20;99.90
22224;DHT22;11281;52.194;21.006;2023-02-15T09:00:58;3.00;99.90
22224;DHT22;11281;52.194;21.006;2023-02-15T09:05:20;3.10;99.90
22224;DHT22;11281;52.194;21.006;2023-02-15T09:09:42;3.10;99.90
22224;DHT22;11281;52.194;21.006;2023-02-15T09:14:09;3.10;99.90
22224;DHT22;11281;52.194;21.006;2023-02-15T09:18:36;3.10;99.90
22224;DHT22;11281;52.194;21.006;2023-02-15T09:22:59;3.10;99.90
22224;DHT22;11281;52.194;21.006;2023-02-15T09:27:21;3.20;99.90
22224;DHT22;11281;52.194;21.006;2023-02-15T09:31:47;3.30;99.90
22224;DHT22;11281;52.194;21.006;2023-02-15T09:36:34;3.20;99.90
22224;DHT22;11281;52.194;21.006;2023-02-15T09:51:34;3.20;99.90
22224;DHT22;11281;52.194;21.006;2023-02-15T09:57:04;3.40;99.90
22224;DHT22;11281;52.194;21.006;2023-02-15T10:05:48;3.30;99.90
22224;DHT22;11281;52.194;21.006;2023-02-15T10:10:40;3.40;99.90
22224;DHT22;11281;52.194;21.006;2023-02-15T10:25:14;3.20;99.90
22224;DHT22;11281;52.194;21.006;2023-02-15T10:30:08;3.40;99.90
22224;DHT22;11281;52.194;21.006;2023-02-15T10:43:46;3.50;99.90
22224;DHT22;11281;52.194;21.006;2023-02-15T10:53:17;3.60;99.90
22224;DHT22;11281;52.194;21.006;2023-02-15T10:58:01;3.60;99.90
22224;DHT22;11281;52.194;21.006;2023-02-15T11:03:18;3.70;99.90
22224;DHT22;11281;52.194;21.006;2023-02-15T11:07:56;3.70;99.90
22224;DHT22;11281;52.194;21.006;2023-02-15T11:12:24;3.70;99.90
22224;DHT22;11281;52.194;21.006;2023-02-15T11:16:50;3.80;99.90
22224;DHT22;11281;52.194;21.006;2023-02-15T11:21:17;3.60;99.90
22224;DHT22;11281;52.194;21.006;2023-02-15T11:25:52;3.70;99.90
22224;DHT22;11281;52.194;21.006;2023-02-15T11:30:22;3.60;99.90
22224;DHT22;11281;52.194;21.006;2023-02-15T11:39:18;3.80;99.90
22224;DHT22;11281;52.194;21.006;2023-02-15T11:44:06;3.60;99.90
22224;DHT22;11281;52.194;21.006;2023-02-15T11:48:31;3.50;99.90
22224;DHT22;11281;52.194;21.006;2023-02-15T11:52:58;3.50;99.90
22224;DHT22;11281;52.194;21.006;2023-02-15T11:57:31;3.70;99.90
22224;DHT22;11281;52.194;21.006;2023-02-15T12:01:56;3.60;99.90
22224;DHT22;11281;52.194;21.006;2023-02-15T12:06:25;3.40;99.90
22224;DHT22;11281;52.194;21.006;2023-02-15T12:11:15;3.40;99.90
22224;DHT22;11281;52.194;21.006;2023-02-15T12:15:45;3.50;99.90
22224;DHT22;11281;52.194;21.006;2023-02-15T12:24:46;3.40;99.90
22224;DHT22;11281;52.194;21.006;2023-02-15T12:29:21;3.50;99.90
22224;DHT22;11281;52.194;21.006;2023-02-15T12:33:45;3.50;99.90
22224;DHT22;11281;52.194;21.006;2023-02-15T12:42:44;3.70;99.90
22224;DHT22;11281;52.194;21.006;2023-02-15T12:47:18;3.80;99.90
22224;DHT22;11281;52.194;21.006;2023-02-15T12:51:49;3.60;99.90
22224;DHT22;11281;52.194;21.006;2023-02-15T12:56:12;3.40;99.90
22224;DHT22;11281;52.194;21.006;2023-02-15T13:00:34;3.30;99.90
22224;DHT22;11281;52.194;21.006;2023-02-15T13:04:57;3.40;99.90
22224;DHT22;11281;52.194;21.006;2023-02-15T13:09:39;3.50;99.90
22224;DHT22;11281;52.194;21.006;2023-02-15T13:14:13;3.40;99.90
22224;DHT22;11281;52.194;21.006;2023-02-15T13:18:44;3.50;99.90
22224;DHT22;11281;52.194;21.006;2023-02-15T13:23:24;3.50;99.90
22224;DHT22;11281;52.194;21.006;2023-02-15T13:27:52;3.50;99.90
22224;DHT22;11281;52.194;21.006;2023-02-15T13:46:35;3.40;99.90
22224;DHT22;11281;52.194;21.006;2023-02-15T13:55:36;3.60;99.90
22224;DHT22;11281;52.194;21.006;2023-02-15T14:00:26;3.60;99.90
22224;DHT22;11281;52.194;21.006;2023-02-15T14:19:52;3.30;99.90
22224;DHT22;11281;52.194;21.006;2023-02-15T14:33:39;3.60;99.90
22224;DHT22;11281;52.194;21.006;2023-02-15T14:43:24;3.70;99.90
22224;DHT22;11281;52.194;21.006;2023-02-15T14:48:08;3.50;99.90
22224;DHT22;11281;52.194;21.006;2023-02-15T14:57:58;3.70;99.90
22224;DHT22;11281;52.194;21.006;2023-02-15T15:02:49;3.50;99.90
22224;DHT22;11281;52.194;21.006;2023-02-15T15:07:22;3.50;99.90
22224;DHT22;11281;52.194;21.006;2023-02-15T15:11:51;3.30;99.90
22224;DHT22;11281;52.194;21.006;2023-02-15T15:16:46;3.40;99.90
22224;DHT22;11281;52.194;21.006;2023-02-15T15:21:09;3.40;99.90
22224;DHT22;11281;52.194;21.006;2023-02-15T15:29:59;3.30;99.90
22224;DHT22;11281;52.194;21.006;2023-02-15T15:34:55;3.30;99.90
22224;DHT22;11281;52.194;21.006;2023-02-15T15:45:00;3.30;99.90
22224;DHT22;11281;52.194;21.006;2023-02-15T15:49:31;3.20;99.90
22224;DHT22;11281;52.194;21.006;2023-02-15T15:53:54;3.20;99.90
22224;DHT22;11281;52.194;21.006;2023-02-15T15:58:18;3.20;99.90
22224;DHT22;11281;52.194;21.006;2023-02-15T16:02:51;3.20;99.90
22224;DHT22;11281;52.194;21.006;2023-02-15T16:07:24;3.20;99.90
22224;DHT22;11281;52.194;21.006;2023-02-15T16:11:54;3.10;99.90
22224;DHT22;11281;52.194;21.006;2023-02-15T16:16:28;3.10;99.90
22224;DHT22;11281;52.194;21.006;2023-02-15T16:21:00;3.10;99.90
22224;DHT22;11281;52.194;21.006;2023-02-15T16:30:31;3.10;99.90
22224;DHT22;11281;52.194;21.006;2023-02-15T16:35:02;3.10;99.90
22224;DHT22;11281;52.194;21.006;2023-02-15T16:39:24;3.10;99.90
22224;DHT22;11281;52.194;21.006;2023-02-15T16:43:48;3.10;99.90
22224;DHT22;11281;52.194;21.006;2023-02-15T16:48:19;3.00;99.90
22224;DHT22;11281;52.194;21.006;2023-02-15T16:52:43;3.00;99.90
22224;DHT22;11281;52.194;21.006;2023-02-15T16:57:05;2.90;99.90
22224;DHT22;11281;52.194;21.006;2023-02-15T17:01:30;2.90;99.90
22224;DHT22;11281;52.194;21.006;2023-02-15T17:05:58;2.90;99.90
22224;DHT22;11281;52.194;21.006;2023-02-15T17:10:32;2.90;99.90
22224;DHT22;11281;52.194;21.006;2023-02-15T17:14:57;2.90;99.90
22224;DHT22;11281;52.194;21.006;2023-02-15T17:19:29;2.80;99.90
22224;DHT22;11281;52.194;21.006;2023-02-15T17:23:58;2.80;99.90
22224;DHT22;11281;52.194;21.006;2023-02-15T17:28:27;2.80;99.90
22224;DHT22;11281;52.194;21.006;2023-02-15T17:32:59;2.70;99.90
22224;DHT22;11281;52.194;21.006;2023-02-15T17:41:55;2.60;99.90
22224;DHT22;11281;52.194;21.006;2023-02-15T17:46:16;2.60;99.90
22224;DHT22;11281;52.194;21.006;2023-02-15T17:50:40;2.60;99.90
22224;DHT22;11281;52.194;21.006;2023-02-15T17:55:12;2.70;99.90
22224;DHT22;11281;52.194;21.006;2023-02-15T17:59:53;2.80;99.90
22224;DHT22;11281;52.194;21.006;2023-02-15T18:04:36;2.80;99.90
22224;DHT22;11281;52.194;21.006;2023-02-15T18:09:18;2.80;99.90
22224;DHT22;11281;52.194;21.006;2023-02-15T18:13:58;2.80;99.90
22224;DHT22;11281;52.194;21.006;2023-02-15T18:18:22;2.70;99.90
22224;DHT22;11281;52.194;21.006;2023-02-15T18:22:44;2.70;99.90
22224;DHT22;11281;52.194;21.006;2023-02-15T18:27:06;2.70;99.90
22224;DHT22;11281;52.194;21.006;2023-02-15T18:31:28;2.60;99.90
22224;DHT22;11281;52.194;21.006;2023-02-15T18:35:50;2.60;99.90
22224;DHT22;11281;52.194;21.006;2023-02-15T18:40:15;2.60;99.90
22224;DHT22;11281;52.194;21.006;2023-02-15T18:44:38;2.60;99.90
22224;DHT22;11281;52.194;21.006;2023-02-15T18:49:00;2.50;99.90
22224;DHT22;11281;52.194;21.006;2023-02-15T18:53:22;2.40;99.90
22224;DHT22;11281;52.194;21.006;2023-02-15T18:57:45;2.50;99.90
22224;DHT22;11281;52.194;21.006;2023-02-15T19:02:12;2.50;99.90
22224;DHT22;11281;52.194;21.006;2023-02-15T19:06:34;2.50;99.90
22224;DHT22;11281;52.194;21.006;2023-02-15T19:10:57;2.50;99.90
22224;DHT22;11281;52.194;21.006;2023-02-15T19:15:27;2.50;99.90
22224;DHT22;11281;52.194;21.006;2023-02-15T19:19:53;2.50;99.90
22224;DHT22;11281;52.194;21.006;2023-02-15T19:24:20;2.40;99.90
22224;DHT22;11281;52.194;21.006;2023-02-15T19:28:59;2.50;99.90
22224;DHT22;11281;52.194;21.006;2023-02-15T19:33:21;2.50;99.90
22224;DHT22;11281;52.194;21.006;2023-02-15T19:37:46;2.40;99.90
22224;DHT22;11281;52.194;21.006;2023-02-15T19:42:14;2.40;99.90
22224;DHT22;11281;52.194;21.006;2023-02-15T19:46:39;2.40;99.90
22224;DHT22;11281;52.194;21.006;2023-02-15T19:51:00;2.50;99.90
22224;DHT22;11281;52.194;21.006;2023-02-15T19:55:29;2.50;99.90
22224;DHT22;11281;52.194;21.006;2023-02-15T19:59:52;2.50;99.90
22224;DHT22;11281;52.194;21.006;2023-02-15T20:04:14;2.40;99.90
22224;DHT22;11281;52.194;21.006;2023-02-15T20:08:35;2.40;99.90
22224;DHT22;11281;52.194;21.006;2023-02-15T20:12:57;2.50;99.90
22224;DHT22;11281;52.194;21.006;2023-02-15T20:17:19;2.40;99.90
22224;DHT22;11281;52.194;21.006;2023-02-15T20:21:45;2.40;99.90
22224;DHT22;11281;52.194;21.006;2023-02-15T20:26:16;2.40;99.90
22224;DHT22;11281;52.194;21.006;2023-02-15T20:30:38;2.50;99.90
22224;DHT22;11281;52.194;21.006;2023-02-15T20:35:00;2.50;99.90
22224;DHT22;11281;52.194;21.006;2023-02-15T20:39:24;2.50;99.90
22224;DHT22;11281;52.194;21.006;2023-02-15T20:43:45;2.60;99.90
22224;DHT22;11281;52.194;21.006;2023-02-15T20:48:07;2.50;99.90
22224;DHT22;11281;52.194;21.006;2023-02-15T20:52:29;2.50;99.90
22224;DHT22;11281;52.194;21.006;2023-02-15T20:56:51;2.50;99.90
22224;DHT22;11281;52.194;21.006;2023-02-15T21:01:14;2.50;99.90
22224;DHT22;11281;52.194;21.006;2023-02-15T21:05:36;2.50;99.90
22224;DHT22;11281;52.194;21.006;2023-02-15T21:09:57;2.50;99.90
22224;DHT22;11281;52.194;21.006;2023-02-15T21:14:22;2.50;99.90
22224;DHT22;11281;52.194;21.006;2023-02-15T21:18:45;2.50;99.90
22224;DHT22;11281;52.194;21.006;2023-02-15T21:23:10;2.50;99.90
22224;DHT22;11281;52.194;21.006;2023-02-15T21:27:32;2.40;99.90
22224;DHT22;11281;52.194;21.006;2023-02-15T21:31:54;2.30;99.90
22224;DHT22;11281;52.194;21.006;2023-02-15T21:36:21;2.30;99.90
22224;DHT22;11281;52.194;21.006;2023-02-15T21:40:44;2.30;99.90
22224;DHT22;11281;52.194;21.006;2023-02-15T21:45:16;2.20;99.90
22224;DHT22;11281;52.194;21.006;2023-02-15T21:49:57;1.80;99.90
22224;DHT22;11281;52.194;21.006;2023-02-15T21:54:40;1.60;99.90
22224;DHT22;11281;52.194;21.006;2023-02-15T21:59:01;1.40;99.90
22224;DHT22;11281;52.194;21.006;2023-02-15T22:03:33;1.10;99.90
22224;DHT22;11281;52.194;21.006;2023-02-15T22:07:56;0.90;99.90
22224;DHT22;11281;52.194;21.006;2023-02-15T22:12:19;0.70;99.90
22224;DHT22;11281;52.194;21.006;2023-02-15T22:16:42;0.60;99.90
22224;DHT22;11281;52.194;21.006;2023-02-15T22:21:04;0.30;99.90
22224;DHT22;11281;52.194;21.006;2023-02-15T22:25:25;0.10;99.90
22224;DHT22;11281;52.194;21.006;2023-02-15T22:29:48;0.00;99.90
22224;DHT22;11281;52.194;21.006;2023-02-15T22:34:26;-0.10;99.90
22224;DHT22;11281;52.194;21.006;2023-02-15T22:38:49;-0.20;99.90
22224;DHT22;11281;52.194;21.006;2023-02-15T22:43:29;-0.30;99.90
22224;DHT22;11281;52.194;21.006;2023-02-15T22:47:57;-0.40;99.90
22224;DHT22;11281;52.194;21.006;2023-02-15T22:52:21;-0.50;99.90
22224;DHT22;11281;52.194;21.006;2023-02-15T22:56:49;-0.60;99.90
22224;DHT22;11281;52.194;21.006;2023-02-15T23:01:22;-0.70;99.90
22224;DHT22;11281;52.194;21.006;2023-02-15T23:05:47;-0.80;99.90
22224;DHT22;11281;52.194;21.006;2023-02-15T23:10:09;-0.90;99.90
22224;DHT22;11281;52.194;21.006;2023-02-15T23:14:41;-1.00;99.90
22224;DHT22;11281;52.194;21.006;2023-02-15T23:19:04;-1.10;99.90
22224;DHT22;11281;52.194;21.006;2023-02-15T23:23:35;-1.10;99.90
22224;DHT22;11281;52.194;21.006;2023-02-15T23:27:58;-1.20;99.90
22224;DHT22;11281;52.194;21.006;2023-02-15T23:32:20;-1.30;99.90
22224;DHT22;11281;52.194;21.006;2023-02-15T23:36:42;-1.30;99.90
22224;DHT22;11281;52.194;21.006;2023-02-15T23:41:08;-1.40;99.90
22224;DHT22;11281;52.194;21.006;2023-02-15T23:45:40;-1.40;99.90
22224;DHT22;11281;52.194;21.006;2023-02-15T23:50:14;-1.50;99.90
22224;DHT22;11281;52.194;21.006;2023-02-15T23:54:43;-1.40;99.90
22224;DHT22;11281;52.194;21.006;2023-02-15T23:59:05;-1.40;99.90
